Ye Chi — VRFV6 — position and weather

sailwx.info

Track history (hours):
 
Tides and Currents Weather Stations Pressure Air Temp Water Temp Dewpoint Dewpoint Depression Visibility Wind Speed Wind Dir Waves Ship Positions

Ye Chi

Last reported at 2016-Aug-13 11:32 UTC. Time now 2016-Aug-25 21:58 UTC.
Position N 01°56' E 102°19'.
Warning: this ship's position is 12 days out of date.

Length 187 m; draft 7.5 m.

Type: Ship (hazmat cat D). MMSI: 477621300.

Date/timePositionNaut miles runAvg speedWind from/ knotsBaromVisibWave heightAir tempDewpointWater temp
2016-Aug-13 11:32N 01°56' E 102°19'1111.2
2016-Aug-13 10:33N 01°51' E 102°29'1111.0
2016-Aug-13 09:31N 01°46' E 102°39'7011.0
2016-Aug-13 03:06N 01°11' E 103°40'6 9.9
2016-Aug-13 02:31N 01°09' E 103°45'9 9.7
2016-Aug-13 01:33N 01°13' E 103°54'6 1.4
2016-Aug-12 21:25N 01°17' E 103°58'0 0.0
2016-Aug-12 20:19N 01°17' E 103°58'0 0.0
2016-Aug-12 19:22N 01°17' E 103°58'0 0.0
2016-Aug-12 18:31N 01°17' E 103°58'0 0.0
2016-Aug-12 17:28N 01°17' E 103°58'0 0.0
2016-Aug-12 16:13N 01°17' E 103°58'0 0.0
2016-Aug-12 15:25N 01°17' E 103°58'0 0.0
2016-Aug-12 14:10N 01°17' E 103°58'0 0.0
2016-Aug-12 13:28N 01°17' E 103°58'0 0.0
2016-Aug-12 11:22N 01°17' E 103°58'0 0.0
2016-Aug-12 09:28N 01°17' E 103°58'0 0.0
2016-Aug-12 08:04N 01°17' E 103°58'0 0.0
2016-Aug-12 07:16N 01°17' E 103°58'0 0.1
2016-Aug-12 06:28N 01°17' E 103°58'0 0.1
2016-Aug-12 05:22N 01°17' E 103°58'0 0.1
2016-Aug-12 04:16N 01°17' E 103°58'0 0.1
2016-Aug-12 03:22N 01°17' E 103°58'0 0.0
2016-Aug-12 01:22N 01°17' E 103°58'0 0.0
2016-Aug-12 00:19N 01°17' E 103°58'0 0.0
2016-Aug-11 22:28N 01°17' E 103°58'0 0.0
2016-Aug-11 21:22N 01°17' E 103°58'0 0.0
2016-Aug-11 20:28N 01°17' E 103°58'0 0.0
2016-Aug-11 19:33N 01°17' E 103°58'0 0.0
2016-Aug-11 18:30N 01°17' E 103°58'0 0.0
2016-Aug-11 17:33N 01°17' E 103°58'0 0.0
2016-Aug-11 16:31N 01°17' E 103°58'1 1.0
2016-Aug-11 15:33N 01°16' E 103°58'10 9.9
2016-Aug-11 14:33N 01°12' E 103°49'5 0.1
2016-Aug-10 04:05N 01°14' E 103°44'0 0.0
2016-Aug-10 02:26N 01°14' E 103°44'0 0.0
2016-Aug-09 17:33N 01°14' E 103°44'4 1.9
2016-Aug-09 15:33N 01°14' E 103°48'0 0.0
2016-Aug-09 14:28N 01°14' E 103°48'0 0.1
2016-Aug-09 13:31N 01°14' E 103°48'0 0.0
2016-Aug-09 12:31N 01°14' E 103°48'0 0.0
2016-Aug-09 11:31N 01°14' E 103°48'0 0.0
2016-Aug-09 10:28N 01°14' E 103°48'0 0.0
2016-Aug-09 09:31N 01°14' E 103°48'0 0.0
2016-Aug-09 08:31N 01°14' E 103°48'0 0.0
2016-Aug-09 07:31N 01°14' E 103°48'0 0.1
2016-Aug-09 04:28N 01°14' E 103°48'0 0.2
2016-Aug-09 03:31N 01°14' E 103°48'0 0.0
2016-Aug-09 02:31N 01°14' E 103°48'0 0.0
2016-Aug-09 01:28N 01°14' E 103°48'0 0.0
2016-Aug-09 00:28N 01°14' E 103°48'0 0.0
2016-Aug-08 23:31N 01°14' E 103°48'0 0.0
2016-Aug-08 22:28N 01°14' E 103°48'0 0.1
2016-Aug-08 21:25N 01°14' E 103°48'0 0.1
2016-Aug-08 20:28N 01°14' E 103°48'0 0.1
2016-Aug-08 19:28N 01°14' E 103°48'0 0.1
2016-Aug-08 18:31N 01°14' E 103°48'0 0.0
2016-Aug-08 17:16N 01°14' E 103°48'0 0.1
2016-Aug-08 16:28N 01°14' E 103°48'0 0.0
2016-Aug-08 15:28N 01°14' E 103°48'0 0.1
2016-Aug-08 14:28N 01°14' E 103°48'0 0.1
2016-Aug-08 13:13N 01°14' E 103°48'0 0.1
2016-Aug-08 12:31N 01°14' E 103°48'0 0.0
2016-Aug-08 11:33N 01°14' E 103°48'0 0.1
2016-Aug-08 10:28N 01°14' E 103°48'0 0.0
2016-Aug-08 09:28N 01°14' E 103°48'0 0.0
2016-Aug-08 08:28N 01°14' E 103°48'0 0.1
2016-Aug-08 07:22N 01°14' E 103°48'0 0.0
2016-Aug-08 06:28N 01°14' E 103°48'0 0.0
2016-Aug-08 05:25N 01°14' E 103°48'0 0.0
2016-Aug-08 04:31N 01°14' E 103°48'0 0.1
2016-Aug-08 03:31N 01°14' E 103°48'0 0.0
2016-Aug-08 02:31N 01°14' E 103°48'0 0.1
2016-Aug-08 01:28N 01°14' E 103°48'0 0.1
2016-Aug-08 00:28N 01°14' E 103°48'0 0.1
2016-Aug-07 23:28N 01°14' E 103°48'0 0.0
2016-Aug-07 22:31N 01°14' E 103°48'0 0.1
2016-Aug-07 21:31N 01°14' E 103°48'0 0.0
2016-Aug-07 20:28N 01°14' E 103°48'0 0.1
2016-Aug-07 19:31N 01°14' E 103°48'0 0.2
2016-Aug-07 18:31N 01°14' E 103°48'0 0.1
2016-Aug-07 17:31N 01°14' E 103°48'0 0.0
2016-Aug-07 16:28N 01°14' E 103°48'0 0.0
2016-Aug-07 15:25N 01°14' E 103°48'0 0.0
2016-Aug-07 14:16N 01°14' E 103°48'0 0.1
2016-Aug-07 13:28N 01°14' E 103°48'0 0.1
2016-Aug-07 12:31N 01°14' E 103°48'0 0.1
2016-Aug-07 11:25N 01°14' E 103°48'0 0.0
2016-Aug-07 10:28N 01°14' E 103°48'0 0.0
2016-Aug-07 09:31N 01°14' E 103°48'0 0.1
2016-Aug-07 08:28N 01°14' E 103°48'0 0.1
2016-Aug-07 07:31N 01°14' E 103°48'0 0.0
2016-Aug-07 06:22N 01°14' E 103°48'0 0.1
2016-Aug-07 04:28N 01°14' E 103°48'0 0.1
2016-Aug-07 02:31N 01°14' E 103°48'0 0.1
2016-Aug-07 01:28N 01°14' E 103°48'0 0.0
2016-Aug-07 00:28N 01°14' E 103°48'0 0.0
2016-Aug-06 23:28N 01°14' E 103°48'0 0.0
2016-Aug-06 22:22N 01°14' E 103°48'0 0.1
2016-Aug-06 21:28N 01°14' E 103°48'0 0.0
2016-Aug-06 20:25N 01°14' E 103°48'0 0.0
2016-Aug-06 19:28N 01°14' E 103°48'0 0.1
2016-Aug-06 18:31N 01°14' E 103°48'0 0.1
2016-Aug-06 17:31N 01°14' E 103°48'0 0.0
2016-Aug-06 16:28N 01°14' E 103°48'0 0.0
2016-Aug-06 15:28N 01°14' E 103°48'0 0.0
2016-Aug-06 14:31N 01°14' E 103°48'0 0.0
2016-Aug-06 13:28N 01°14' E 103°48'0 0.0
2016-Aug-06 12:31N 01°14' E 103°48'0 0.0
2016-Aug-06 11:22N 01°14' E 103°48'0 0.0
2016-Aug-06 10:31N 01°14' E 103°48'0 0.1
2016-Aug-06 09:28N 01°14' E 103°48'0 0.0
2016-Aug-06 08:31N 01°14' E 103°48'0 0.0
2016-Aug-06 07:28N 01°14' E 103°48'0 0.0
2016-Aug-06 04:31N 01°14' E 103°48'0 0.0
2016-Aug-06 03:31N 01°14' E 103°48'0 0.1
2016-Aug-06 02:28N 01°14' E 103°48'0 0.0
2016-Aug-06 01:28N 01°14' E 103°48'0 0.0
2016-Aug-05 22:22N 01°14' E 103°48'0 0.0
2016-Aug-05 20:28N 01°14' E 103°48'0 0.0
2016-Aug-05 19:28N 01°14' E 103°48'0 0.1
2016-Aug-05 18:28N 01°14' E 103°48'0 0.0
2016-Aug-05 17:22N 01°14' E 103°48'0 0.1
2016-Aug-05 16:31N 01°14' E 103°48'0 0.1
2016-Aug-05 15:28N 01°14' E 103°48'0 0.1
2016-Aug-05 14:28N 01°14' E 103°48'0 0.0
2016-Aug-05 13:28N 01°14' E 103°48'0 0.1
2016-Aug-05 12:28N 01°14' E 103°48'0 0.0
2016-Aug-05 11:28N 01°14' E 103°48'0 0.1
2016-Aug-05 10:28N 01°14' E 103°48'0 0.1
2016-Aug-05 09:31N 01°14' E 103°48'0 0.1
2016-Aug-05 08:28N 01°14' E 103°48'0 0.1
2016-Aug-05 07:28N 01°14' E 103°48'0 0.1
2016-Aug-05 06:31N 01°14' E 103°48'0 0.1
2016-Aug-05 04:28N 01°14' E 103°48'0 0.0
2016-Aug-05 03:28N 01°14' E 103°48'0 0.1
2016-Aug-05 02:28N 01°14' E 103°48'0 0.1
2016-Aug-05 01:31N 01°14' E 103°48'0 0.0
2016-Aug-05 00:28N 01°14' E 103°48'0 0.0
2016-Aug-04 23:28N 01°14' E 103°48'0 0.0
2016-Aug-04 22:28N 01°14' E 103°48'0 0.1
2016-Aug-04 21:28N 01°14' E 103°48'0 0.1
2016-Aug-04 20:31N 01°14' E 103°48'0 0.0
2016-Aug-04 19:28N 01°14' E 103°48'0 0.1
2016-Aug-04 18:22N 01°14' E 103°48'0 0.1
2016-Aug-04 17:28N 01°14' E 103°48'0 0.1
2016-Aug-04 16:22N 01°14' E 103°48'0 0.1
2016-Aug-04 15:22N 01°14' E 103°48'0 0.0
2016-Aug-04 14:28N 01°14' E 103°48'0 0.0
2016-Aug-04 13:28N 01°14' E 103°48'0 0.1
2016-Aug-04 12:28N 01°14' E 103°48'0 0.0
2016-Aug-04 11:31N 01°14' E 103°48'0 0.0
2016-Aug-04 10:22N 01°14' E 103°48'0 0.0
2016-Aug-04 09:28N 01°14' E 103°48'0 0.1
2016-Aug-04 08:10N 01°14' E 103°48'0 0.0
2016-Aug-04 07:31N 01°14' E 103°48'0 0.0
2016-Aug-04 06:28N 01°14' E 103°48'0 0.1
2016-Aug-04 04:22N 01°14' E 103°48'0 0.1
2016-Aug-04 03:22N 01°14' E 103°48'0 0.1
2016-Aug-04 02:28N 01°14' E 103°48'0 0.0
2016-Aug-04 01:31N 01°14' E 103°48'0 0.0
2016-Aug-04 00:28N 01°14' E 103°48'0 0.0
2016-Aug-03 23:28N 01°14' E 103°48'0 0.0
2016-Aug-03 22:28N 01°14' E 103°48'0 0.0
2016-Aug-03 21:28N 01°14' E 103°48'0 0.0
2016-Aug-03 20:28N 01°14' E 103°48'0 0.0
2016-Aug-03 19:28N 01°14' E 103°48'0 0.0
2016-Aug-03 18:28N 01°14' E 103°48'0 0.1
2016-Aug-03 17:31N 01°14' E 103°48'0 0.1
2016-Aug-03 16:31N 01°14' E 103°48'0 0.0
2016-Aug-03 15:28N 01°14' E 103°48'1 1.0
2016-Aug-03 14:33N 01°14' E 103°47'6 6.3
2016-Aug-03 13:33N 01°14' E 103°54'6 5.7
2016-Aug-03 12:33N 01°16' E 103°59'6 5.6
2016-Aug-03 11:33N 01°16' E 104°05'  
Track history (hours):
 
Tides and Currents Weather Stations Pressure Air Temp Water Temp Dewpoint Dewpoint Depression Visibility Wind Speed Wind Dir Waves Ship Positions

Ye Chi

Last reported at 2016-Aug-13 11:32 UTC. Time now 2016-Aug-25 21:58 UTC.
Position N 01°56' E 102°19'.
Warning: this ship's position is 12 days out of date.

Length 187 m; draft 7.5 m.

Type: Ship (hazmat cat D). MMSI: 477621300.

Date/timePositionNaut miles runAvg speedWind from/ knotsBaromVisibWave heightAir tempDewpointWater temp
2016-Aug-13 11:32N 01°56' E 102°19'1111.2
2016-Aug-13 10:33N 01°51' E 102°29'1111.0
2016-Aug-13 09:31N 01°46' E 102°39'7011.0
2016-Aug-13 03:06N 01°11' E 103°40'6 9.9
2016-Aug-13 02:31N 01°09' E 103°45'9 9.7
2016-Aug-13 01:33N 01°13' E 103°54'6 1.4
2016-Aug-12 21:25N 01°17' E 103°58'0 0.0
2016-Aug-12 20:19N 01°17' E 103°58'0 0.0
2016-Aug-12 19:22N 01°17' E 103°58'0 0.0
2016-Aug-12 18:31N 01°17' E 103°58'0 0.0
2016-Aug-12 17:28N 01°17' E 103°58'0 0.0
2016-Aug-12 16:13N 01°17' E 103°58'0 0.0
2016-Aug-12 15:25N 01°17' E 103°58'0 0.0
2016-Aug-12 14:10N 01°17' E 103°58'0 0.0
2016-Aug-12 13:28N 01°17' E 103°58'0 0.0
2016-Aug-12 11:22N 01°17' E 103°58'0 0.0
2016-Aug-12 09:28N 01°17' E 103°58'0 0.0
2016-Aug-12 08:04N 01°17' E 103°58'0 0.0
2016-Aug-12 07:16N 01°17' E 103°58'0 0.1
2016-Aug-12 06:28N 01°17' E 103°58'0 0.1
2016-Aug-12 05:22N 01°17' E 103°58'0 0.1
2016-Aug-12 04:16N 01°17' E 103°58'0 0.1
2016-Aug-12 03:22N 01°17' E 103°58'0 0.0
2016-Aug-12 01:22N 01°17' E 103°58'0 0.0
2016-Aug-12 00:19N 01°17' E 103°58'0 0.0
2016-Aug-11 22:28N 01°17' E 103°58'0 0.0
2016-Aug-11 21:22N 01°17' E 103°58'0 0.0
2016-Aug-11 20:28N 01°17' E 103°58'0 0.0
2016-Aug-11 19:33N 01°17' E 103°58'0 0.0
2016-Aug-11 18:30N 01°17' E 103°58'0 0.0
2016-Aug-11 17:33N 01°17' E 103°58'0 0.0
2016-Aug-11 16:31N 01°17' E 103°58'1 1.0
2016-Aug-11 15:33N 01°16' E 103°58'10 9.9
2016-Aug-11 14:33N 01°12' E 103°49'5 0.1
2016-Aug-10 04:05N 01°14' E 103°44'0 0.0
2016-Aug-10 02:26N 01°14' E 103°44'0 0.0
2016-Aug-09 17:33N 01°14' E 103°44'4 1.9
2016-Aug-09 15:33N 01°14' E 103°48'0 0.0
2016-Aug-09 14:28N 01°14' E 103°48'0 0.1
2016-Aug-09 13:31N 01°14' E 103°48'0 0.0
2016-Aug-09 12:31N 01°14' E 103°48'0 0.0
2016-Aug-09 11:31N 01°14' E 103°48'0 0.0
2016-Aug-09 10:28N 01°14' E 103°48'0 0.0
2016-Aug-09 09:31N 01°14' E 103°48'0 0.0
2016-Aug-09 08:31N 01°14' E 103°48'0 0.0
2016-Aug-09 07:31N 01°14' E 103°48'0 0.1
2016-Aug-09 04:28N 01°14' E 103°48'0 0.2
2016-Aug-09 03:31N 01°14' E 103°48'0 0.0
2016-Aug-09 02:31N 01°14' E 103°48'0 0.0
2016-Aug-09 01:28N 01°14' E 103°48'0 0.0
2016-Aug-09 00:28N 01°14' E 103°48'0 0.0
2016-Aug-08 23:31N 01°14' E 103°48'0 0.0
2016-Aug-08 22:28N 01°14' E 103°48'0 0.1
2016-Aug-08 21:25N 01°14' E 103°48'0 0.1
2016-Aug-08 20:28N 01°14' E 103°48'0 0.1
2016-Aug-08 19:28N 01°14' E 103°48'0 0.1
2016-Aug-08 18:31N 01°14' E 103°48'0 0.0
2016-Aug-08 17:16N 01°14' E 103°48'0 0.1
2016-Aug-08 16:28N 01°14' E 103°48'0 0.0
2016-Aug-08 15:28N 01°14' E 103°48'0 0.1
2016-Aug-08 14:28N 01°14' E 103°48'0 0.1
2016-Aug-08 13:13N 01°14' E 103°48'0 0.1
2016-Aug-08 12:31N 01°14' E 103°48'0 0.0
2016-Aug-08 11:33N 01°14' E 103°48'0 0.1
2016-Aug-08 10:28N 01°14' E 103°48'0 0.0
2016-Aug-08 09:28N 01°14' E 103°48'0 0.0
2016-Aug-08 08:28N 01°14' E 103°48'0 0.1
2016-Aug-08 07:22N 01°14' E 103°48'0 0.0
2016-Aug-08 06:28N 01°14' E 103°48'0 0.0
2016-Aug-08 05:25N 01°14' E 103°48'0 0.0
2016-Aug-08 04:31N 01°14' E 103°48'0 0.1
2016-Aug-08 03:31N 01°14' E 103°48'0 0.0
2016-Aug-08 02:31N 01°14' E 103°48'0 0.1
2016-Aug-08 01:28N 01°14' E 103°48'0 0.1
2016-Aug-08 00:28N 01°14' E 103°48'0 0.1
2016-Aug-07 23:28N 01°14' E 103°48'0 0.0
2016-Aug-07 22:31N 01°14' E 103°48'0 0.1
2016-Aug-07 21:31N 01°14' E 103°48'0 0.0
2016-Aug-07 20:28N 01°14' E 103°48'0 0.1
2016-Aug-07 19:31N 01°14' E 103°48'0 0.2
2016-Aug-07 18:31N 01°14' E 103°48'0 0.1
2016-Aug-07 17:31N 01°14' E 103°48'0 0.0
2016-Aug-07 16:28N 01°14' E 103°48'0 0.0
2016-Aug-07 15:25N 01°14' E 103°48'0 0.0
2016-Aug-07 14:16N 01°14' E 103°48'0 0.1
2016-Aug-07 13:28N 01°14' E 103°48'0 0.1
2016-Aug-07 12:31N 01°14' E 103°48'0 0.1
2016-Aug-07 11:25N 01°14' E 103°48'0 0.0
2016-Aug-07 10:28N 01°14' E 103°48'0 0.0
2016-Aug-07 09:31N 01°14' E 103°48'0 0.1
2016-Aug-07 08:28N 01°14' E 103°48'0 0.1
2016-Aug-07 07:31N 01°14' E 103°48'0 0.0
2016-Aug-07 06:22N 01°14' E 103°48'0 0.1
2016-Aug-07 04:28N 01°14' E 103°48'0 0.1
2016-Aug-07 02:31N 01°14' E 103°48'0 0.1
2016-Aug-07 01:28N 01°14' E 103°48'0 0.0
2016-Aug-07 00:28N 01°14' E 103°48'0 0.0
2016-Aug-06 23:28N 01°14' E 103°48'0 0.0
2016-Aug-06 22:22N 01°14' E 103°48'0 0.1
2016-Aug-06 21:28N 01°14' E 103°48'0 0.0
2016-Aug-06 20:25N 01°14' E 103°48'0 0.0
2016-Aug-06 19:28N 01°14' E 103°48'0 0.1
2016-Aug-06 18:31N 01°14' E 103°48'0 0.1
2016-Aug-06 17:31N 01°14' E 103°48'0 0.0
2016-Aug-06 16:28N 01°14' E 103°48'0 0.0
2016-Aug-06 15:28N 01°14' E 103°48'0 0.0
2016-Aug-06 14:31N 01°14' E 103°48'0 0.0
2016-Aug-06 13:28N 01°14' E 103°48'0 0.0
2016-Aug-06 12:31N 01°14' E 103°48'0 0.0
2016-Aug-06 11:22N 01°14' E 103°48'0 0.0
2016-Aug-06 10:31N 01°14' E 103°48'0 0.1
2016-Aug-06 09:28N 01°14' E 103°48'0 0.0
2016-Aug-06 08:31N 01°14' E 103°48'0 0.0
2016-Aug-06 07:28N 01°14' E 103°48'0 0.0
2016-Aug-06 04:31N 01°14' E 103°48'0 0.0
2016-Aug-06 03:31N 01°14' E 103°48'0 0.1
2016-Aug-06 02:28N 01°14' E 103°48'0 0.0
2016-Aug-06 01:28N 01°14' E 103°48'0 0.0
2016-Aug-05 22:22N 01°14' E 103°48'0 0.0
2016-Aug-05 20:28N 01°14' E 103°48'0 0.0
2016-Aug-05 19:28N 01°14' E 103°48'0 0.1
2016-Aug-05 18:28N 01°14' E 103°48'0 0.0
2016-Aug-05 17:22N 01°14' E 103°48'0 0.1
2016-Aug-05 16:31N 01°14' E 103°48'0 0.1
2016-Aug-05 15:28N 01°14' E 103°48'0 0.1
2016-Aug-05 14:28N 01°14' E 103°48'0 0.0
2016-Aug-05 13:28N 01°14' E 103°48'0 0.1
2016-Aug-05 12:28N 01°14' E 103°48'0 0.0
2016-Aug-05 11:28N 01°14' E 103°48'0 0.1
2016-Aug-05 10:28N 01°14' E 103°48'0 0.1
2016-Aug-05 09:31N 01°14' E 103°48'0 0.1
2016-Aug-05 08:28N 01°14' E 103°48'0 0.1
2016-Aug-05 07:28N 01°14' E 103°48'0 0.1
2016-Aug-05 06:31N 01°14' E 103°48'0 0.1
2016-Aug-05 04:28N 01°14' E 103°48'0 0.0
2016-Aug-05 03:28N 01°14' E 103°48'0 0.1
2016-Aug-05 02:28N 01°14' E 103°48'0 0.1
2016-Aug-05 01:31N 01°14' E 103°48'0 0.0
2016-Aug-05 00:28N 01°14' E 103°48'0 0.0
2016-Aug-04 23:28N 01°14' E 103°48'0 0.0
2016-Aug-04 22:28N 01°14' E 103°48'0 0.1
2016-Aug-04 21:28N 01°14' E 103°48'0 0.1
2016-Aug-04 20:31N 01°14' E 103°48'0 0.0
2016-Aug-04 19:28N 01°14' E 103°48'0 0.1
2016-Aug-04 18:22N 01°14' E 103°48'0 0.1
2016-Aug-04 17:28N 01°14' E 103°48'0 0.1
2016-Aug-04 16:22N 01°14' E 103°48'0 0.1
2016-Aug-04 15:22N 01°14' E 103°48'0 0.0
2016-Aug-04 14:28N 01°14' E 103°48'0 0.0
2016-Aug-04 13:28N 01°14' E 103°48'0 0.1
2016-Aug-04 12:28N 01°14' E 103°48'0 0.0
2016-Aug-04 11:31N 01°14' E 103°48'0 0.0
2016-Aug-04 10:22N 01°14' E 103°48'0 0.0
2016-Aug-04 09:28N 01°14' E 103°48'0 0.1
2016-Aug-04 08:10N 01°14' E 103°48'0 0.0
2016-Aug-04 07:31N 01°14' E 103°48'0 0.0
2016-Aug-04 06:28N 01°14' E 103°48'0 0.1
2016-Aug-04 04:22N 01°14' E 103°48'0 0.1
2016-Aug-04 03:22N 01°14' E 103°48'0 0.1
2016-Aug-04 02:28N 01°14' E 103°48'0 0.0
2016-Aug-04 01:31N 01°14' E 103°48'0 0.0
2016-Aug-04 00:28N 01°14' E 103°48'0 0.0
2016-Aug-03 23:28N 01°14' E 103°48'0 0.0
2016-Aug-03 22:28N 01°14' E 103°48'0 0.0
2016-Aug-03 21:28N 01°14' E 103°48'0 0.0
2016-Aug-03 20:28N 01°14' E 103°48'0 0.0
2016-Aug-03 19:28N 01°14' E 103°48'0 0.0
2016-Aug-03 18:28N 01°14' E 103°48'0 0.1
2016-Aug-03 17:31N 01°14' E 103°48'0 0.1
2016-Aug-03 16:31N 01°14' E 103°48'0 0.0
2016-Aug-03 15:28N 01°14' E 103°48'1 1.0
2016-Aug-03 14:33N 01°14' E 103°47'6 6.3
2016-Aug-03 13:33N 01°14' E 103°54'6 5.7
2016-Aug-03 12:33N 01°16' E 103°59'6 5.6
2016-Aug-03 11:33N 01°16' E 104°05'  

Dump ship's entire track history